Time;durP1;ratioP1;P1;durP2;ratioP2;P2;SDS_P1;SDS_P2;PMS_P1;PMS_P2;Temp;Humidity;BMP_temperature;BMP_pressure;BME280_temperature;BME280_humidity;BME280_pressure;Samples;Min_cycle;Max_cycle;Signal;HPM_P1;HPM_P2
2023/06/06 00:01:43;;;;;;;0.30;0.30;;;;;;;12.93;74.52;100956.22;5128263;28;20031;-57
2023/06/06 00:04:09;;;;;;;0.30;0.30;;;;;;;13.00;74.36;100961.34;5128471;28;20024;-59
2023/06/06 00:06:35;;;;;;;0.30;0.30;;;;;;;13.09;73.81;100970.84;5128406;28;20047;-59
2023/06/06 00:09:00;;;;;;;0.47;0.47;;;;;;;13.07;74.02;100964.78;5128122;28;20485;-58
2023/06/06 00:11:28;;;;;;;4.57;1.10;;;;;;;13.07;73.89;100961.28;5128388;28;20075;-58
2023/06/06 00:13:56;;;;;;;0.30;0.30;;;;;;;13.06;73.84;100957.84;5128240;28;20036;-59
2023/06/06 00:16:27;;;;;;;0.70;0.70;;;;;;;13.13;73.62;100961.25;5127738;28;20050;-55
2023/06/06 00:18:53;;;;;;;0.30;0.30;;;;;;;13.13;73.43;100963.88;5127655;28;20483;-56
2023/06/06 00:21:21;;;;;;;0.30;0.30;;;;;;;13.07;73.08;100956.94;5127858;28;20040;-57
2023/06/06 00:23:47;;;;;;;0.40;0.40;;;;;;;13.14;73.27;100957.75;5127697;28;20034;-58
2023/06/06 00:26:13;;;;;;;0.30;0.30;;;;;;;13.12;73.30;100957.78;5127907;28;20049;-57
2023/06/06 00:28:39;;;;;;;0.30;0.30;;;;;;;13.10;73.03;100948.25;5127773;28;20023;-58
2023/06/06 00:31:04;;;;;;;0.40;0.40;;;;;;;13.13;72.88;100959.50;5127866;28;20054;-57
2023/06/06 00:33:29;;;;;;;0.30;0.30;;;;;;;13.13;73.05;100961.25;5127887;28;20042;-54
2023/06/06 00:35:55;;;;;;;0.30;0.30;;;;;;;13.10;73.09;100961.28;5127749;28;20098;-57
2023/06/06 00:38:20;;;;;;;0.30;0.30;;;;;;;13.11;73.27;100957.78;5127384;28;20553;-58
2023/06/06 00:40:46;;;;;;;0.30;0.30;;;;;;;13.12;72.85;100960.38;5109249;28;20026;-59
2023/06/06 00:43:11;;;;;;;0.30;0.30;;;;;;;13.13;72.69;100958.66;5127498;28;20050;-57
2023/06/06 00:45:36;;;;;;;0.30;0.30;;;;;;;13.11;72.36;100947.38;5127401;28;20047;-57
2023/06/06 00:48:02;;;;;;;0.30;0.30;;;;;;;13.08;72.81;100956.06;5127492;28;20027;-58
2023/06/06 00:50:28;;;;;;;0.55;0.55;;;;;;;13.08;73.14;100956.06;5127372;28;20020;-57
2023/06/06 00:52:55;;;;;;;0.30;0.30;;;;;;;13.10;73.12;100948.25;5127248;28;20106;-57
2023/06/06 00:55:21;;;;;;;0.40;0.40;;;;;;;13.11;73.16;100949.97;5127291;28;20023;-57
2023/06/06 00:57:48;;;;;;;0.30;0.30;;;;;;;13.09;72.95;100957.81;5127157;28;20023;-57
2023/06/06 01:00:15;;;;;;;0.30;0.30;;;;;;;13.04;73.13;100933.53;5127325;28;20031;-58
2023/06/06 01:02:43;;;;;;;0.40;0.40;;;;;;;13.05;73.30;100937.00;5127015;28;20019;-60
2023/06/06 01:05:09;;;;;;;0.50;0.50;;;;;;;13.06;73.35;100949.16;5127230;28;20463;-59
2023/06/06 01:07:36;;;;;;;0.57;0.57;;;;;;;13.06;73.55;100952.63;5127394;28;20050;-57
2023/06/06 01:10:07;;;;;;;0.30;0.30;;;;;;;13.02;73.49;100950.91;5126806;28;20024;-59
2023/06/06 01:12:47;;;;;;;1.70;1.60;;;;;;;12.98;73.46;100944.88;5127052;28;20020;-59
2023/06/06 01:15:50;;;;;;;0.30;0.30;;;;;;;12.92;73.83;100942.34;5126914;28;20027;-59
2023/06/06 01:18:17;;;;;;;0.30;0.30;;;;;;;12.96;73.69;100940.56;5126934;28;20046;-57
2023/06/06 01:20:43;;;;;;;0.75;0.75;;;;;;;12.95;73.90;100936.22;5126433;28;20040;-59
2023/06/06 01:23:13;;;;;;;0.40;0.40;;;;;;;12.96;73.90;100940.56;5126479;28;20046;-56
2023/06/06 01:25:41;;;;;;;0.30;0.30;;;;;;;12.95;74.11;100937.09;5126870;28;20058;-57
2023/06/06 01:28:13;;;;;;;0.30;0.30;;;;;;;12.94;74.03;100945.78;5126734;28;20028;-57
2023/06/06 01:30:40;;;;;;;0.30;0.30;;;;;;;12.97;74.17;100942.28;5126651;28;20019;-59
2023/06/06 01:33:17;;;;;;;0.30;0.30;;;;;;;12.96;73.86;100944.03;5126568;28;20038;-57
2023/06/06 01:35:59;;;;;;;0.30;0.30;;;;;;;12.95;74.16;100933.63;5126131;28;20374;-57
2023/06/06 01:38:26;;;;;;;;;;;;;;;12.95;74.64;100938.84;5126734;28;20054;-56
2023/06/06 01:40:54;;;;;;;0.30;0.30;;;;;;;12.91;73.90;100938.00;5126145;28;20303;-57
2023/06/06 01:43:24;;;;;;;0.40;0.40;;;;;;;12.87;74.12;100931.09;5126250;28;20023;-54
2023/06/06 01:45:50;;;;;;;0.30;0.30;;;;;;;12.88;73.85;100928.47;5126268;28;20244;-57
2023/06/06 01:48:17;;;;;;;0.30;0.30;;;;;;;12.87;73.91;100931.09;5126156;28;20079;-58
2023/06/06 01:50:44;;;;;;;0.30;0.30;;;;;;;12.80;73.83;100925.06;5126106;28;20105;-56
2023/06/06 01:53:09;;;;;;;0.30;0.30;;;;;;;12.80;74.01;100927.66;5125925;28;20458;-59
2023/06/06 01:55:38;;;;;;;0.30;0.30;;;;;;;12.77;73.91;100935.53;5126422;28;20031;-58
2023/06/06 01:58:04;;;;;;;0.40;0.40;;;;;;;12.70;74.01;100929.50;5125995;28;20020;-57
2023/06/06 02:00:30;;;;;;;0.20;0.20;;;;;;;12.71;74.40;100927.75;5126011;28;20520;-58
2023/06/06 02:02:56;;;;;;;2.25;2.15;;;;;;;12.71;74.45;100935.56;5125925;28;20032;-58
2023/06/06 02:05:21;;;;;;;0.30;0.30;;;;;;;12.72;74.44;100938.16;5107620;28;20024;-58
2023/06/06 02:07:49;;;;;;;0.20;0.20;;;;;;;12.69;74.34;100932.97;5126019;28;20463;-55
2023/06/06 02:10:15;;;;;;;0.30;0.30;;;;;;;12.70;74.15;100934.69;5125753;28;20106;-59
2023/06/06 02:12:41;;;;;;;0.30;0.30;;;;;;;12.70;73.77;100929.50;5125830;28;20020;-57
2023/06/06 02:15:07;;;;;;;0.28;0.28;;;;;;;12.69;74.03;100932.09;5125797;28;20035;-57
2023/06/06 02:17:33;;;;;;;0.52;0.52;;;;;;;12.62;74.18;100926.97;5125770;28;20439;-57
2023/06/06 02:19:59;;;;;;;0.30;0.30;;;;;;;12.55;74.53;100925.28;5125642;28;20044;-56
2023/06/06 02:22:24;;;;;;;0.85;0.82;;;;;;;12.51;74.47;100920.97;5125783;28;20037;-58
2023/06/06 02:24:52;;;;;;;0.30;0.30;;;;;;;12.45;74.31;100913.22;5125650;28;20028;-57
2023/06/06 02:27:19;;;;;;;0.20;0.20;;;;;;;12.52;74.64;100926.16;5125874;28;20542;-58
2023/06/06 02:29:45;;;;;;;0.30;0.30;;;;;;;12.51;74.93;100924.44;5125717;28;20031;-58
2023/06/06 02:32:11;;;;;;;0.30;0.30;;;;;;;12.51;74.97;100920.97;5125699;28;20020;-58
2023/06/06 02:34:37;;;;;;;0.30;0.30;;;;;;;12.50;75.09;100924.47;5125584;28;20058;-57
2023/06/06 02:37:06;;;;;;;0.30;0.30;;;;;;;12.50;75.52;100927.94;5125645;28;20047;-58
2023/06/06 02:39:35;;;;;;;0.30;0.30;;;;;;;12.51;75.49;100926.19;5126202;28;20023;-58
2023/06/06 02:42:05;;;;;;;0.30;0.30;;;;;;;12.55;75.61;100930.50;5132481;28;20027;-57
2023/06/06 02:44:30;;;;;;;1.85;1.20;;;;;;;12.59;75.71;100921.78;5132577;28;20047;-58
2023/06/06 02:46:57;;;;;;;0.40;0.40;;;;;;;12.63;75.56;100923.50;5132307;28;20034;-54
2023/06/06 02:49:22;;;;;;;0.30;0.30;;;;;;;12.66;75.04;100927.81;5132452;28;20083;-57
2023/06/06 02:51:48;;;;;;;0.30;0.30;;;;;;;12.68;75.04;100925.19;5132242;28;20043;-58
2023/06/06 02:54:13;;;;;;;0.50;0.50;;;;;;;12.66;75.05;100924.31;5132048;28;20023;-58
2023/06/06 02:56:39;;;;;;;0.30;0.30;;;;;;;12.64;75.00;100920.00;5132246;28;20020;-57
2023/06/06 02:59:04;;;;;;;0.30;0.30;;;;;;;12.63;75.20;100920.88;5132127;28;20055;-59
2023/06/06 03:01:33;;;;;;;0.30;0.30;;;;;;;12.66;75.21;100921.72;5132194;28;20023;-55
2023/06/06 03:03:58;;;;;;;0.30;0.30;;;;;;;12.72;75.15;100924.25;5132200;28;20024;-58
2023/06/06 03:06:23;;;;;;;0.40;0.40;;;;;;;12.80;75.42;100917.25;5132311;28;20029;-57
2023/06/06 03:08:55;;;;;;;0.30;0.30;;;;;;;13.01;75.72;100918.78;5132018;27;20027;-57
2023/06/06 03:11:21;;;;;;;0.30;0.30;;;;;;;13.27;76.41;100925.44;5132122;28;20020;-57
2023/06/06 03:13:46;;;;;;;0.30;0.30;;;;;;;13.59;77.27;100914.69;5132309;28;20262;-60
2023/06/06 03:16:15;;;;;;;0.40;0.40;;;;;;;13.99;76.94;100926.34;5132045;28;20019;-58
2023/06/06 03:18:41;;;;;;;1.65;1.20;;;;;;;14.36;76.76;100915.31;5132065;28;20103;-58
2023/06/06 03:21:07;;;;;;;0.30;0.30;;;;;;;14.68;76.72;100918.28;5131718;28;20104;-56
2023/06/06 03:23:33;;;;;;;0.20;0.20;;;;;;;15.09;76.40;100918.47;5131792;28;20035;-58
2023/06/06 03:25:58;;;;;;;0.82;0.77;;;;;;;15.39;75.79;100919.63;5132021;28;20020;-59
2023/06/06 03:28:23;;;;;;;0.30;0.30;;;;;;;15.78;75.12;100921.44;5113540;28;20073;-58
2023/06/06 03:30:49;;;;;;;0.52;0.52;;;;;;;16.04;75.02;100909.56;5132074;28;20016;-58
2023/06/06 03:33:15;;;;;;;0.20;0.20;;;;;;;16.41;74.63;100915.63;5132118;28;20026;-60
2023/06/06 03:35:42;;;;;;;0.20;0.20;;;;;;;16.73;73.44;100916.59;5131827;28;20024;-58
2023/06/06 03:38:07;;;;;;;0.20;0.20;;;;;;;16.91;72.67;100906.50;5131686;28;20015;-58
2023/06/06 03:40:33;;;;;;;0.20;0.20;;;;;;;17.19;72.84;100909.25;5132101;28;20030;-57
2023/06/06 03:42:59;;;;;;;1.67;1.58;;;;;;;17.46;70.55;100912.00;5131895;28;20028;-59
2023/06/06 03:45:24;;;;;;;0.20;0.20;;;;;;;17.71;69.22;100910.41;5131725;28;20567;-59
2023/06/06 03:47:50;;;;;;;0.28;0.28;;;;;;;17.94;68.14;100906.19;5131889;28;20247;-59
2023/06/06 03:50:17;;;;;;;0.20;0.20;;;;;;;18.00;66.97;100903.41;5131508;28;20026;-58
2023/06/06 03:52:43;;;;;;;0.45;0.45;;;;;;;18.29;67.40;100903.41;5127922;28;20031;-60
2023/06/06 03:55:10;;;;;;;0.20;0.20;;;;;;;18.56;66.50;100906.84;5128194;28;20106;-59
2023/06/06 03:57:38;;;;;;;0.20;0.20;;;;;;;18.86;66.66;100912.88;5128543;28;20031;-59
2023/06/06 04:00:13;;;;;;;0.20;0.20;;;;;;;19.10;65.38;100912.94;5128365;28;20037;-58
2023/06/06 04:02:46;;;;;;;0.20;0.20;;;;;;;19.42;64.88;100908.28;5128539;28;20147;-60
2023/06/06 04:05:12;;;;;;;0.30;0.30;;;;;;;19.70;64.03;100901.94;5128455;28;20028;-59
2023/06/06 04:07:37;;;;;;;0.43;0.43;;;;;;;20.00;63.07;100899.00;5128149;28;20028;-59
2023/06/06 04:10:03;;;;;;;0.30;0.30;;;;;;;20.22;61.90;100905.22;5128124;28;20015;-59
2023/06/06 04:12:28;;;;;;;0.30;0.30;;;;;;;20.40;60.93;100904.44;5128447;28;20106;-58
2023/06/06 04:14:54;;;;;;;0.47;0.47;;;;;;;20.48;60.76;100893.56;5128190;28;20019;-59
2023/06/06 04:17:21;;;;;;;0.20;0.20;;;;;;;20.62;59.50;100902.69;5128182;28;20024;-60
2023/06/06 04:19:49;;;;;;;0.20;0.20;;;;;;;20.77;58.11;100909.94;5127911;28;20483;-58
2023/06/06 04:22:15;;;;;;;0.20;0.20;;;;;;;21.01;58.53;100904.53;5128365;28;20023;-59
2023/06/06 04:24:41;;;;;;;0.20;0.20;;;;;;;21.28;58.00;100900.69;5127883;28;20023;-59
2023/06/06 04:27:07;;;;;;;0.57;0.57;;;;;;;21.62;57.92;100906.19;5128053;28;20027;-60
2023/06/06 04:29:33;;;;;;;0.20;0.20;;;;;;;21.98;56.87;100902.75;5128006;28;20023;-59
2023/06/06 04:32:03;;;;;;;0.20;0.20;;;;;;;22.18;55.30;100900.91;5109644;28;20045;-59
2023/06/06 04:34:30;;;;;;;0.20;0.20;;;;;;;22.37;54.34;100902.63;5127727;28;20031;-60
2023/06/06 04:37:03;;;;;;;0.20;0.20;;;;;;;22.58;53.86;100900.69;5127792;28;20436;-59
2023/06/06 04:39:30;;;;;;;1.13;1.05;;;;;;;23.00;54.21;100905.63;5127615;28;20023;-59
2023/06/06 04:41:57;;;;;;;0.20;0.20;;;;;;;23.32;53.23;100895.09;5109332;28;20016;-60
2023/06/06 04:44:23;;;;;;;0.20;0.20;;;;;;;23.57;52.53;100903.50;5127520;28;20057;-59
2023/06/06 04:46:52;;;;;;;0.20;0.20;;;;;;;23.69;51.80;100897.50;5127638;28;20027;-59
2023/06/06 04:49:19;;;;;;;0.20;0.20;;;;;;;23.80;49.67;100899.59;5127543;28;20050;-59
2023/06/06 04:51:44;;;;;;;0.20;0.20;;;;;;;23.86;48.76;100901.88;5127497;28;20020;-59
2023/06/06 04:54:10;;;;;;;0.10;0.10;;;;;;;24.30;49.42;100891.44;5127267;28;20024;-60
2023/06/06 04:56:38;;;;;;;0.68;0.68;;;;;;;24.54;47.47;100898.06;5127453;28;20019;-59
2023/06/06 04:59:07;;;;;;;0.43;0.43;;;;;;;24.86;46.82;100887.25;5127325;28;20102;-59
2023/06/06 05:01:36;;;;;;;0.10;0.10;;;;;;;25.22;46.32;100898.38;5127414;28;20045;-59
2023/06/06 05:04:03;;;;;;;0.30;0.30;;;;;;;25.28;44.05;100882.06;5126981;28;20101;-60
2023/06/06 05:06:31;;;;;;;0.25;0.25;;;;;;;25.31;42.76;100891.63;5126988;28;20022;-60
2023/06/06 05:09:07;;;;;;;0.15;0.15;;;;;;;25.40;43.22;100900.84;5127051;28;20023;-59
2023/06/06 05:11:35;;;;;;;0.10;0.10;;;;;;;25.69;43.11;100896.31;5127120;28;20102;-59
2023/06/06 05:14:01;;;;;;;0.20;0.20;;;;;;;25.78;40.90;100902.00;5127135;28;20049;-59
2023/06/06 05:16:27;;;;;;;0.10;0.10;;;;;;;25.58;39.87;100896.97;5126951;28;20496;-60
2023/06/06 05:18:53;;;;;;;0.20;0.20;;;;;;;25.62;40.47;100895.03;5127033;28;20031;-60
2023/06/06 05:21:19;;;;;;;0.28;0.28;;;;;;;25.23;40.06;100889.44;5126612;28;20048;-60
2023/06/06 05:23:45;;;;;;;0.35;0.35;;;;;;;24.93;40.85;100883.31;5126898;28;20039;-59
2023/06/06 05:26:12;;;;;;;0.20;0.20;;;;;;;25.03;41.38;100888.06;5126788;28;20043;-60
2023/06/06 05:28:38;;;;;;;0.10;0.10;;;;;;;25.36;41.50;100887.75;5126556;28;20024;-59
2023/06/06 05:31:07;;;;;;;0.10;0.10;;;;;;;25.46;39.99;100885.31;5126833;28;20080;-60
2023/06/06 05:33:34;;;;;;;0.10;0.10;;;;;;;25.22;40.25;100891.28;5126736;28;20020;-60
2023/06/06 05:36:00;;;;;;;0.17;0.17;;;;;;;25.30;41.42;100887.28;5126815;28;20042;-60
2023/06/06 05:38:26;;;;;;;0.10;0.10;;;;;;;25.57;40.64;100889.09;5126336;28;20054;-60
2023/06/06 05:40:52;;;;;;;0.10;0.10;;;;;;;25.47;40.01;100897.69;5126613;28;20023;-60
2023/06/06 05:43:17;;;;;;;0.10;0.10;;;;;;;25.36;39.54;100886.88;5126488;28;20035;-60
2023/06/06 05:45:43;;;;;;;1.08;1.08;;;;;;;24.97;39.55;100889.28;5126286;28;20030;-60
2023/06/06 05:48:08;;;;;;;0.10;0.10;;;;;;;24.91;39.83;100885.22;5126436;28;20410;-60
2023/06/06 05:50:34;;;;;;;0.52;0.52;;;;;;;24.96;39.87;100888.44;5126301;28;20049;-60
2023/06/06 05:53:02;;;;;;;0.28;0.28;;;;;;;25.17;39.39;100885.41;5126424;28;20065;-60
2023/06/06 05:55:30;;;;;;;0.17;0.17;;;;;;;25.03;38.60;100888.06;5126375;28;20016;-60
2023/06/06 05:57:56;;;;;;;0.10;0.10;;;;;;;24.94;38.38;100884.16;5126327;28;20028;-58
2023/06/06 06:00:25;;;;;;;0.13;0.13;;;;;;;24.93;37.89;100883.31;5126216;28;20027;-57
2023/06/06 06:02:53;;;;;;;0.10;0.10;;;;;;;25.02;38.77;100884.53;5126133;28;20043;-60
2023/06/06 06:05:19;;;;;;;0.10;0.10;;;;;;;25.09;38.07;100893.84;5126271;28;20084;-60
2023/06/06 06:07:47;;;;;;;0.20;0.20;;;;;;;25.10;38.01;100886.72;5126004;28;20079;-59
2023/06/06 06:10:13;;;;;;;0.10;0.10;;;;;;;25.26;37.05;100897.22;5125865;28;20034;-60
2023/06/06 06:12:38;;;;;;;0.10;0.10;;;;;;;25.34;37.07;100894.09;5125993;28;20019;-61
2023/06/06 06:15:04;;;;;;;0.10;0.10;;;;;;;25.27;37.54;100884.81;5124946;28;20227;-59
2023/06/06 06:17:30;;;;;;;0.10;0.10;;;;;;;25.21;36.15;100892.22;5126033;28;20023;-60
2023/06/06 06:19:55;;;;;;;0.10;0.10;;;;;;;25.22;36.13;100888.63;5125782;28;20132;-61
2023/06/06 06:22:22;;;;;;;0.20;0.20;;;;;;;25.28;36.72;100899.78;5125734;28;20418;-60
2023/06/06 06:24:48;;;;;;;0.10;0.10;;;;;;;25.46;36.90;100903.09;5125673;28;20035;-60
2023/06/06 06:27:13;;;;;;;0.20;0.20;;;;;;;25.82;36.11;100901.69;5125677;28;20024;-60
2023/06/06 06:29:38;;;;;;;0.45;0.45;;;;;;;25.97;35.82;100909.63;5125488;28;20019;-60
2023/06/06 06:32:04;;;;;;;0.10;0.10;;;;;;;26.01;35.43;100907.63;5125896;28;20027;-61
2023/06/06 06:34:29;;;;;;;0.10;0.10;;;;;;;26.22;36.26;100908.84;5125744;28;20022;-60
2023/06/06 06:36:55;;;;;;;0.10;0.10;;;;;;;26.30;33.70;100907.44;5125700;28;20019;-60
2023/06/06 06:39:20;;;;;;;0.20;0.20;;;;;;;26.14;33.24;100903.16;5125414;28;20031;-60
2023/06/06 06:41:46;;;;;;;0.20;0.20;;;;;;;25.99;33.66;100916.53;5125375;28;20043;-60
2023/06/06 06:44:12;;;;;;;0.32;0.32;;;;;;;26.01;33.47;100920.91;5125530;28;20027;-60
2023/06/06 06:46:37;;;;;;;0.10;0.10;;;;;;;26.00;33.15;100920.06;5107509;28;20051;-61
2023/06/06 06:49:02;;;;;;;0.10;0.10;;;;;;;25.93;34.07;100910.75;5125584;28;20020;-59
2023/06/06 06:51:29;;;;;;;0.10;0.10;;;;;;;25.97;34.14;100914.94;5125466;28;20031;-60
2023/06/06 06:53:57;;;;;;;0.17;0.17;;;;;;;26.07;33.60;100908.03;5125489;28;20082;-61
2023/06/06 06:56:24;;;;;;;0.63;0.63;;;;;;;26.04;33.13;100910.91;5125505;28;20047;-61
2023/06/06 06:58:50;;;;;;;0.20;0.20;;;;;;;25.97;33.22;100910.47;5125390;28;20032;-60
2023/06/06 07:01:19;;;;;;;0.43;0.43;;;;;;;25.82;32.98;100912.31;5125191;28;20023;-60
2023/06/06 07:03:48;;;;;;;0.30;0.30;;;;;;;25.79;33.44;100914.31;5125383;28;20027;-61
2023/06/06 07:06:13;;;;;;;0.10;0.10;;;;;;;25.73;32.96;100915.59;5125418;28;20088;-60
2023/06/06 07:08:41;;;;;;;0.75;0.75;;;;;;;25.43;33.63;100916.56;5125106;28;20048;-60
2023/06/06 07:11:07;;;;;;;0.13;0.13;;;;;;;25.36;33.30;100913.44;5125525;28;20023;-60
2023/06/06 07:13:32;;;;;;;0.20;0.20;;;;;;;25.40;33.72;100912.28;5125164;28;20031;-60
2023/06/06 07:15:58;;;;;;;0.10;0.10;;;;;;;25.15;34.00;100895.25;5125238;28;20069;-60
2023/06/06 07:18:24;;;;;;;0.40;0.40;;;;;;;25.44;34.05;100915.63;5106959;28;20039;-61
2023/06/06 07:20:49;;;;;;;0.50;0.50;;;;;;;25.59;34.09;100916.44;5124846;28;20420;-60
2023/06/06 07:23:15;;;;;;;0.20;0.20;;;;;;;25.60;33.69;100911.03;5125153;28;20132;-61
2023/06/06 07:25:41;;;;;;;0.10;0.10;;;;;;;25.48;34.12;100915.31;5125083;28;20027;-62
2023/06/06 07:28:07;;;;;;;0.40;0.40;;;;;;;25.46;35.25;100911.91;5128830;28;20020;-70
2023/06/06 07:30:33;;;;;;;1.05;1.05;;;;;;;25.76;34.38;100907.41;5110792;28;20023;-77
2023/06/06 07:32:58;;;;;;;0.10;0.10;;;;;;;26.07;34.40;100907.19;5128995;28;20071;-76
2023/06/06 07:35:30;;;;;;;0.40;0.40;;;;;;;26.49;33.95;100909.75;5129064;28;20038;-72
2023/06/06 07:37:55;;;;;;;0.10;0.10;;;;;;;26.94;33.07;100903.16;5129452;28;20035;-63
2023/06/06 07:40:20;;;;;;;0.10;0.10;;;;;;;26.95;32.75;100903.03;5110267;28;20053;-71
2023/06/06 07:42:47;;;;;;;0.15;0.15;;;;;;;26.87;33.14;100897.38;5128700;28;20028;-74
2023/06/06 07:45:13;;;;;;;0.50;0.50;;;;;;;27.13;31.79;100912.53;5110529;28;20019;-72
2023/06/06 07:47:40;;;;;;;0.10;0.10;;;;;;;27.16;30.95;100918.50;5128522;28;20024;-74
2023/06/06 07:50:06;;;;;;;0.10;0.10;;;;;;;27.13;30.79;100907.19;5128554;28;20020;-73
2023/06/06 07:52:32;;;;;;;0.10;0.10;;;;;;;27.34;30.55;100908.34;5110273;28;20044;-68
2023/06/06 07:54:59;;;;;;;0.38;0.38;;;;;;;27.24;30.33;100915.28;5128137;28;20195;-67
2023/06/06 07:57:25;;;;;;;0.52;0.52;;;;;;;26.81;31.55;100908.47;5128647;28;20026;-62
2023/06/06 07:59:51;;;;;;;0.63;0.63;;;;;;;26.65;32.20;100900.69;5128599;28;20051;-61
2023/06/06 08:02:16;;;;;;;0.30;0.30;;;;;;;26.77;31.59;100909.66;5128566;28;20443;-60
2023/06/06 08:04:45;;;;;;;0.45;0.45;;;;;;;26.58;30.74;100917.09;5128425;28;20108;-62
2023/06/06 08:07:13;;;;;;;0.10;0.10;;;;;;;26.57;30.63;100926.06;5128400;28;20129;-62
2023/06/06 08:09:39;;;;;;;0.10;0.10;;;;;;;26.56;29.67;100910.19;5128111;28;20028;-62
2023/06/06 08:12:05;;;;;;;0.20;0.20;;;;;;;26.50;29.13;100915.94;5128211;28;20064;-62
2023/06/06 08:14:34;;;;;;;0.15;0.15;;;;;;;26.32;29.70;100908.25;5128294;28;20028;-62
2023/06/06 08:17:00;;;;;;;0.17;0.17;;;;;;;26.53;30.25;100919.25;5128368;28;20038;-61
2023/06/06 08:19:26;;;;;;;0.10;0.10;;;;;;;26.50;29.79;100913.28;5127813;28;20048;-62
2023/06/06 08:21:52;;;;;;;0.20;0.20;;;;;;;26.36;30.59;100912.38;5128283;28;20040;-62
2023/06/06 08:24:17;;;;;;;0.10;0.10;;;;;;;26.47;30.94;100911.69;5127656;28;20094;-60
2023/06/06 08:26:42;;;;;;;0.10;0.10;;;;;;;26.14;32.03;100902.31;5127910;28;20016;-61
2023/06/06 08:29:08;;;;;;;0.10;0.10;;;;;;;26.17;32.24;100918.06;5127830;28;20065;-61
2023/06/06 08:31:33;;;;;;;0.20;0.20;;;;;;;26.14;32.40;100912.94;5127884;28;20034;-60
2023/06/06 08:33:59;;;;;;;0.10;0.10;;;;;;;26.05;33.07;100911.75;5127590;28;20024;-60
2023/06/06 08:36:25;;;;;;;0.10;0.10;;;;;;;26.20;33.21;100917.88;5127768;28;20079;-61
2023/06/06 08:38:51;;;;;;;0.10;0.10;;;;;;;26.44;33.40;100907.41;5126869;28;20039;-60
2023/06/06 08:41:17;;;;;;;0.10;0.10;;;;;;;26.98;32.80;100916.13;5127496;28;20024;-61
2023/06/06 08:43:46;;;;;;;0.10;0.10;;;;;;;27.38;32.06;100916.13;5127608;28;20023;-60
2023/06/06 08:46:12;;;;;;;0.10;0.10;;;;;;;27.61;30.88;100922.44;5127629;28;20069;-61
2023/06/06 08:48:43;;;;;;;1.10;1.00;;;;;;;27.45;29.08;100923.56;5127640;28;20026;-61
2023/06/06 08:51:09;;;;;;;0.10;0.10;;;;;;;27.44;29.27;100924.53;5127561;28;20075;-60
2023/06/06 08:53:35;;;;;;;0.10;0.10;;;;;;;27.45;29.91;100928.03;5127266;28;20042;-59
2023/06/06 08:56:01;;;;;;;0.20;0.20;;;;;;;27.65;29.68;100921.25;5127353;28;20522;-60
2023/06/06 08:58:29;;;;;;;0.10;0.10;;;;;;;27.49;30.18;100920.66;5127195;28;20024;-60
2023/06/06 09:00:59;;;;;;;0.50;0.50;;;;;;;27.28;30.98;100918.59;5127149;28;20059;-62
2023/06/06 09:03:31;;;;;;;0.20;0.20;;;;;;;27.60;30.12;100920.75;5127168;28;20482;-62
2023/06/06 09:06:00;;;;;;;0.15;0.15;;;;;;;27.47;30.04;100926.97;5126717;28;20036;-61
2023/06/06 09:08:25;;;;;;;0.10;0.10;;;;;;;27.30;30.74;100919.34;5126853;28;20031;-61
2023/06/06 09:10:51;;;;;;;0.10;0.10;;;;;;;27.41;29.63;100916.75;5126659;28;20403;-61
2023/06/06 09:13:16;;;;;;;0.10;0.10;;;;;;;27.27;29.07;100924.88;5127125;28;20043;-62
2023/06/06 09:15:45;;;;;;;0.10;0.10;;;;;;;27.25;28.63;100916.13;5126880;28;20027;-62
2023/06/06 09:18:10;;;;;;;0.10;0.10;;;;;;;27.25;29.04;100924.13;5126862;28;20513;-61
2023/06/06 09:20:37;;;;;;;0.10;0.10;;;;;;;27.18;29.31;100927.25;5126541;28;20048;-62
2023/06/06 09:23:03;;;;;;;0.10;0.10;;;;;;;27.18;29.02;100926.38;5126865;28;20074;-61
2023/06/06 09:25:29;;;;;;;0.10;0.10;;;;;;;27.30;28.61;100928.16;5126455;28;20029;-62
2023/06/06 09:28:02;;;;;;;0.40;0.35;;;;;;;27.41;28.50;100937.22;5126693;28;20024;-61
2023/06/06 09:30:32;;;;;;;0.10;0.10;;;;;;;27.32;27.41;100922.72;5126754;28;20023;-62
2023/06/06 09:33:01;;;;;;;0.20;0.20;;;;;;;26.94;28.64;100930.66;5126911;28;20034;-62
2023/06/06 09:35:43;;;;;;;0.10;0.10;;;;;;;27.17;28.86;100924.69;5126556;28;20015;-61
2023/06/06 09:38:15;;;;;;;0.20;0.20;;;;;;;27.36;29.05;100934.88;5126680;28;20083;-61
2023/06/06 09:41:01;;;;;;;0.85;0.85;;;;;;;27.28;28.47;100935.44;5126507;28;20023;-61
2023/06/06 09:43:27;;;;;;;0.10;0.10;;;;;;;27.09;28.86;100923.41;5126017;28;20039;-62
2023/06/06 09:45:55;;;;;;;0.10;0.10;;;;;;;27.08;29.16;100926.16;5126099;28;20019;-61
2023/06/06 09:48:28;;;;;;;0.10;0.10;;;;;;;27.13;29.61;100937.38;5126301;28;20535;-61
2023/06/06 09:50:55;;;;;;;0.10;0.10;;;;;;;27.57;28.09;100929.78;5124949;28;20495;-61
2023/06/06 09:53:28;;;;;;;0.10;0.10;;;;;;;27.61;27.37;100943.75;5126326;28;20024;-61
2023/06/06 09:55:57;;;;;;;0.10;0.10;;;;;;;27.48;27.30;100933.13;5107755;28;20058;-61
2023/06/06 09:58:25;;;;;;;0.10;0.10;;;;;;;27.32;27.46;100928.06;5126200;28;20030;-61
2023/06/06 10:00:53;;;;;;;0.57;0.57;;;;;;;27.45;27.79;100931.56;5126151;28;20044;-62
2023/06/06 10:03:20;;;;;;;0.15;0.15;;;;;;;27.35;27.87;100941.16;5126333;28;20044;-61
2023/06/06 10:05:50;;;;;;;0.45;0.45;;;;;;;27.44;27.95;100937.84;5126081;28;20027;-62
2023/06/06 10:08:19;;;;;;;0.10;0.10;;;;;;;27.28;28.08;100935.44;5126008;28;20094;-62
2023/06/06 10:10:49;;;;;;;0.10;0.10;;;;;;;27.06;28.93;100942.28;5125943;28;20020;-62
2023/06/06 10:13:17;;;;;;;0.63;0.63;;;;;;;27.12;28.52;100943.66;5125838;28;20486;-62
2023/06/06 10:15:43;;;;;;;0.10;0.10;;;;;;;26.79;28.98;100937.88;5125796;28;20435;-62
2023/06/06 10:18:12;;;;;;;0.10;0.10;;;;;;;26.55;29.71;100935.13;5125540;28;20383;-61
2023/06/06 10:20:39;;;;;;;1.65;0.80;;;;;;;26.55;29.67;100938.59;5125681;28;20083;-60
2023/06/06 10:23:05;;;;;;;0.85;0.85;;;;;;;26.66;29.16;100943.19;5125646;28;20022;-61
2023/06/06 10:25:31;;;;;;;0.10;0.10;;;;;;;26.96;28.64;100941.19;5125658;28;20383;-62
2023/06/06 10:27:56;;;;;;;0.25;0.25;;;;;;;26.90;28.38;100944.28;5125929;28;20079;-61
2023/06/06 10:30:47;;;;;;;0.10;0.10;;;;;;;26.83;27.96;100943.84;5107259;28;20165;-62
2023/06/06 10:33:43;;;;;;;0.20;0.20;;;;;;;26.73;27.93;100947.16;5125808;28;20020;-62
2023/06/06 10:36:10;;;;;;;1.50;1.40;;;;;;;26.84;26.86;100935.75;5125770;28;20277;-61
2023/06/06 10:38:37;;;;;;;0.10;0.10;;;;;;;26.92;26.46;100948.53;5125888;28;20034;-62
2023/06/06 10:41:19;;;;;;;0.88;0.85;;;;;;;27.19;26.26;100947.59;5107059;28;20020;-62
2023/06/06 10:43:47;;;;;;;0.10;0.10;;;;;;;27.15;25.96;100946.13;5125773;28;20016;-61
2023/06/06 10:46:12;;;;;;;0.10;0.10;;;;;;;26.84;25.77;100943.75;5106903;28;20058;-61
2023/06/06 10:48:43;;;;;;;0.15;0.15;;;;;;;26.36;26.42;100944.31;5125507;28;20019;-61
2023/06/06 10:51:32;;;;;;;1.60;1.50;;;;;;;25.98;26.76;100948.53;5125639;28;20019;-62
2023/06/06 10:54:27;;;;;;;0.20;0.20;;;;;;;25.79;27.05;100947.09;5113184;28;20035;-59
2023/06/06 10:56:54;;;;;;;0.10;0.10;;;;;;;25.36;27.49;100943.53;5125381;28;20107;-61
2023/06/06 10:59:31;;;;;;;0.32;0.32;;;;;;;24.50;28.11;100950.44;5125300;28;20035;-60
2023/06/06 11:01:57;;;;;;;0.10;0.10;;;;;;;23.74;29.76;100952.91;5127667;28;20039;-61
2023/06/06 11:04:27;;;;;;;0.20;0.20;;;;;;;23.18;31.20;100950.63;5129627;28;20422;-61
2023/06/06 11:07:00;;;;;;;0.77;0.77;;;;;;;22.71;32.86;100951.22;5129696;28;20016;-61
2023/06/06 11:09:29;;;;;;;0.10;0.10;;;;;;;22.29;32.95;100946.19;5129590;28;20228;-61
2023/06/06 11:12:13;;;;;;;0.20;0.20;;;;;;;22.10;33.85;100942.72;5129190;28;20019;-61
2023/06/06 11:15:20;;;;;;;2.45;2.30;;;;;;;21.60;34.26;100943.25;5129361;28;20104;-61
2023/06/06 11:17:49;;;;;;;0.88;0.73;;;;;;;21.03;35.67;100941.41;5124041;28;20035;-62
2023/06/06 11:20:19;;;;;;;0.20;0.20;;;;;;;20.65;37.75;100950.03;5128834;28;20052;-61
2023/06/06 11:23:02;;;;;;;0.20;0.20;;;;;;;20.35;38.61;100951.22;5128865;28;20044;-62
2023/06/06 11:25:32;;;;;;;0.20;0.20;;;;;;;20.03;40.31;100953.41;5129106;28;20019;-61
2023/06/06 11:27:58;;;;;;;0.82;0.82;;;;;;;19.68;41.67;100946.78;5129196;28;20031;-61